sensor_id;sensor_type;location;lat;lon;timestamp;P1;P2;P0
59758;PMS5003;61150;62.516;17.862;2022-08-01T00:02:18;10;10;
59758;PMS5003;61150;62.516;17.862;2022-08-01T00:04:47;11;11;
59758;PMS5003;61150;62.516;17.862;2022-08-01T00:07:16;9;9;
59758;PMS5003;61150;62.516;17.862;2022-08-01T00:09:45;8;8;
59758;PMS5003;61150;62.516;17.862;2022-08-01T00:12:13;10;10;
59758;PMS5003;61150;62.516;17.862;2022-08-01T00:14:42;12;12;
59758;PMS5003;61150;62.516;17.862;2022-08-01T00:17:11;13;13;
59758;PMS5003;61150;62.516;17.862;2022-08-01T00:19:40;11;11;
59758;PMS5003;61150;62.516;17.862;2022-08-01T00:22:09;9;9;
59758;PMS5003;61150;62.516;17.862;2022-08-01T00:24:38;10;10;
59758;PMS5003;61150;62.516;17.862;2022-08-01T00:27:07;11;11;
59758;PMS5003;61150;62.516;17.862;2022-08-01T00:29:36;7;7;
59758;PMS5003;61150;62.516;17.862;2022-08-01T00:32:05;11;11;
59758;PMS5003;61150;62.516;17.862;2022-08-01T00:34:33;11;11;
59758;PMS5003;61150;62.516;17.862;2022-08-01T00:37:03;15;15;
59758;PMS5003;61150;62.516;17.862;2022-08-01T00:39:33;12;12;
59758;PMS5003;61150;62.516;17.862;2022-08-01T00:42:05;10;10;
59758;PMS5003;61150;62.516;17.862;2022-08-01T00:44:35;15;15;
59758;PMS5003;61150;62.516;17.862;2022-08-01T00:47:04;15;14;
59758;PMS5003;61150;62.516;17.862;2022-08-01T00:49:34;14;14;
59758;PMS5003;61150;62.516;17.862;2022-08-01T00:52:04;13;13;
59758;PMS5003;61150;62.516;17.862;2022-08-01T00:54:34;14;14;
59758;PMS5003;61150;62.516;17.862;2022-08-01T00:57:03;13;13;
59758;PMS5003;61150;62.516;17.862;2022-08-01T00:59:33;12;12;
59758;PMS5003;61150;62.516;17.862;2022-08-01T01:02:56;13;13;
59758;PMS5003;61150;62.516;17.862;2022-08-01T01:05:24;14;14;
59758;PMS5003;61150;62.516;17.862;2022-08-01T01:07:54;12;12;
59758;PMS5003;61150;62.516;17.862;2022-08-01T01:10:31;13;13;
59758;PMS5003;61150;62.516;17.862;2022-08-01T01:13:06;12;12;
59758;PMS5003;61150;62.516;17.862;2022-08-01T01:15:39;12;12;
59758;PMS5003;61150;62.516;17.862;2022-08-01T01:18:11;11;11;
59758;PMS5003;61150;62.516;17.862;2022-08-01T01:20:47;15;15;
59758;PMS5003;61150;62.516;17.862;2022-08-01T01:23:32;14;12;
59758;PMS5003;61150;62.516;17.862;2022-08-01T01:26:17;12;12;
59758;PMS5003;61150;62.516;17.862;2022-08-01T01:28:57;13;13;
59758;PMS5003;61150;62.516;17.862;2022-08-01T01:31:33;12;12;
59758;PMS5003;61150;62.516;17.862;2022-08-01T01:34:07;13;13;
59758;PMS5003;61150;62.516;17.862;2022-08-01T01:36:38;11;11;
59758;PMS5003;61150;62.516;17.862;2022-08-01T01:39:09;10;10;
59758;PMS5003;61150;62.516;17.862;2022-08-01T01:41:37;11;11;
59758;PMS5003;61150;62.516;17.862;2022-08-01T01:44:06;12;12;
59758;PMS5003;61150;62.516;17.862;2022-08-01T01:46:38;12;12;
59758;PMS5003;61150;62.516;17.862;2022-08-01T01:49:08;12;11;
59758;PMS5003;61150;62.516;17.862;2022-08-01T01:51:39;11;11;
59758;PMS5003;61150;62.516;17.862;2022-08-01T01:54:09;13;12;
59758;PMS5003;61150;62.516;17.862;2022-08-01T01:56:38;9;9;
59758;PMS5003;61150;62.516;17.862;2022-08-01T01:59:09;10;10;
59758;PMS5003;61150;62.516;17.862;2022-08-01T02:01:38;10;10;
59758;PMS5003;61150;62.516;17.862;2022-08-01T02:04:06;10;10;
59758;PMS5003;61150;62.516;17.862;2022-08-01T02:06:36;12;12;
59758;PMS5003;61150;62.516;17.862;2022-08-01T02:09:07;11;11;
59758;PMS5003;61150;62.516;17.862;2022-08-01T02:11:37;10;10;
59758;PMS5003;61150;62.516;17.862;2022-08-01T02:14:08;11;11;
59758;PMS5003;61150;62.516;17.862;2022-08-01T02:16:39;10;10;
59758;PMS5003;61150;62.516;17.862;2022-08-01T02:19:11;12;12;
59758;PMS5003;61150;62.516;17.862;2022-08-01T02:21:43;9;9;
59758;PMS5003;61150;62.516;17.862;2022-08-01T02:24:17;9;8;
59758;PMS5003;61150;62.516;17.862;2022-08-01T02:26:55;11;11;
59758;PMS5003;61150;62.516;17.862;2022-08-01T02:29:27;10;10;
59758;PMS5003;61150;62.516;17.862;2022-08-01T02:32:05;11;11;
59758;PMS5003;61150;62.516;17.862;2022-08-01T02:34:35;12;11;
59758;PMS5003;61150;62.516;17.862;2022-08-01T02:37:04;10;10;
59758;PMS5003;61150;62.516;17.862;2022-08-01T02:39:33;10;10;
59758;PMS5003;61150;62.516;17.862;2022-08-01T02:42:05;12;12;
59758;PMS5003;61150;62.516;17.862;2022-08-01T02:44:37;12;12;
59758;PMS5003;61150;62.516;17.862;2022-08-01T02:47:08;12;11;
59758;PMS5003;61150;62.516;17.862;2022-08-01T02:49:39;11;11;
59758;PMS5003;61150;62.516;17.862;2022-08-01T02:52:13;9;8;
59758;PMS5003;61150;62.516;17.862;2022-08-01T02:54:44;10;10;
59758;PMS5003;61150;62.516;17.862;2022-08-01T02:57:15;10;10;
59758;PMS5003;61150;62.516;17.862;2022-08-01T02:59:45;12;12;
59758;PMS5003;61150;62.516;17.862;2022-08-01T03:02:18;12;11;
59758;PMS5003;61150;62.516;17.862;2022-08-01T03:04:48;8;8;
59758;PMS5003;61150;62.516;17.862;2022-08-01T03:07:17;9;9;
59758;PMS5003;61150;62.516;17.862;2022-08-01T03:09:48;11;11;
59758;PMS5003;61150;62.516;17.862;2022-08-01T03:12:18;10;10;
59758;PMS5003;61150;62.516;17.862;2022-08-01T03:14:51;13;13;
59758;PMS5003;61150;62.516;17.862;2022-08-01T03:17:22;11;10;
59758;PMS5003;61150;62.516;17.862;2022-08-01T03:19:53;12;12;
59758;PMS5003;61150;62.516;17.862;2022-08-01T03:22:24;13;12;
59758;PMS5003;61150;62.516;17.862;2022-08-01T03:24:55;11;11;
59758;PMS5003;61150;62.516;17.862;2022-08-01T03:27:25;13;13;
59758;PMS5003;61150;62.516;17.862;2022-08-01T03:29:54;14;14;
59758;PMS5003;61150;62.516;17.862;2022-08-01T03:32:25;12;12;
59758;PMS5003;61150;62.516;17.862;2022-08-01T03:34:57;13;13;
59758;PMS5003;61150;62.516;17.862;2022-08-01T03:37:26;14;13;
59758;PMS5003;61150;62.516;17.862;2022-08-01T03:40:02;12;11;
59758;PMS5003;61150;62.516;17.862;2022-08-01T03:42:37;13;13;
59758;PMS5003;61150;62.516;17.862;2022-08-01T03:45:18;12;12;
59758;PMS5003;61150;62.516;17.862;2022-08-01T03:47:51;10;10;
59758;PMS5003;61150;62.516;17.862;2022-08-01T03:50:23;15;14;
59758;PMS5003;61150;62.516;17.862;2022-08-01T03:52:53;13;13;
59758;PMS5003;61150;62.516;17.862;2022-08-01T03:55:23;13;13;
59758;PMS5003;61150;62.516;17.862;2022-08-01T03:57:53;12;12;
59758;PMS5003;61150;62.516;17.862;2022-08-01T04:02:57;13;13;
59758;PMS5003;61150;62.516;17.862;2022-08-01T04:05:26;13;13;
59758;PMS5003;61150;62.516;17.862;2022-08-01T04:07:54;12;11;
59758;PMS5003;61150;62.516;17.862;2022-08-01T04:10:24;13;12;
59758;PMS5003;61150;62.516;17.862;2022-08-01T04:12:52;11;11;
59758;PMS5003;61150;62.516;17.862;2022-08-01T04:15:21;14;13;
59758;PMS5003;61150;62.516;17.862;2022-08-01T04:17:50;11;11;
59758;PMS5003;61150;62.516;17.862;2022-08-01T04:20:19;11;11;
59758;PMS5003;61150;62.516;17.862;2022-08-01T04:22:47;12;11;
59758;PMS5003;61150;62.516;17.862;2022-08-01T04:25:19;8;8;
59758;PMS5003;61150;62.516;17.862;2022-08-01T04:27:52;13;13;
59758;PMS5003;61150;62.516;17.862;2022-08-01T04:30:23;12;12;
59758;PMS5003;61150;62.516;17.862;2022-08-01T04:32:58;13;12;
59758;PMS5003;61150;62.516;17.862;2022-08-01T04:35:29;11;11;
59758;PMS5003;61150;62.516;17.862;2022-08-01T04:37:59;13;12;
59758;PMS5003;61150;62.516;17.862;2022-08-01T04:40:30;12;12;
59758;PMS5003;61150;62.516;17.862;2022-08-01T04:42:59;15;15;
59758;PMS5003;61150;62.516;17.862;2022-08-01T04:45:27;12;12;
59758;PMS5003;61150;62.516;17.862;2022-08-01T04:47:56;12;12;
59758;PMS5003;61150;62.516;17.862;2022-08-01T04:50:25;10;10;
59758;PMS5003;61150;62.516;17.862;2022-08-01T04:52:54;12;12;
59758;PMS5003;61150;62.516;17.862;2022-08-01T04:55:23;12;12;
59758;PMS5003;61150;62.516;17.862;2022-08-01T04:57:51;12;11;
59758;PMS5003;61150;62.516;17.862;2022-08-01T05:00:20;12;11;
59758;PMS5003;61150;62.516;17.862;2022-08-01T05:02:49;12;12;
59758;PMS5003;61150;62.516;17.862;2022-08-01T05:05:18;14;13;
59758;PMS5003;61150;62.516;17.862;2022-08-01T05:07:47;12;12;
59758;PMS5003;61150;62.516;17.862;2022-08-01T05:10:15;10;10;
59758;PMS5003;61150;62.516;17.862;2022-08-01T05:12:44;13;13;
59758;PMS5003;61150;62.516;17.862;2022-08-01T05:15:13;14;14;
59758;PMS5003;61150;62.516;17.862;2022-08-01T05:17:42;13;13;
59758;PMS5003;61150;62.516;17.862;2022-08-01T05:20:11;13;12;
59758;PMS5003;61150;62.516;17.862;2022-08-01T05:22:39;14;13;
59758;PMS5003;61150;62.516;17.862;2022-08-01T05:25:08;14;14;
59758;PMS5003;61150;62.516;17.862;2022-08-01T05:27:37;15;15;
59758;PMS5003;61150;62.516;17.862;2022-08-01T05:30:07;12;12;
59758;PMS5003;61150;62.516;17.862;2022-08-01T05:32:37;15;15;
59758;PMS5003;61150;62.516;17.862;2022-08-01T05:35:06;10;10;
59758;PMS5003;61150;62.516;17.862;2022-08-01T05:37:36;12;12;
59758;PMS5003;61150;62.516;17.862;2022-08-01T05:40:05;12;12;
59758;PMS5003;61150;62.516;17.862;2022-08-01T05:42:35;14;13;
59758;PMS5003;61150;62.516;17.862;2022-08-01T05:45:05;13;13;
59758;PMS5003;61150;62.516;17.862;2022-08-01T05:47:34;12;12;
59758;PMS5003;61150;62.516;17.862;2022-08-01T05:50:04;12;11;
59758;PMS5003;61150;62.516;17.862;2022-08-01T05:52:32;14;14;
59758;PMS5003;61150;62.516;17.862;2022-08-01T05:55:01;13;13;
59758;PMS5003;61150;62.516;17.862;2022-08-01T05:57:30;13;13;
59758;PMS5003;61150;62.516;17.862;2022-08-01T05:59:59;15;15;
59758;PMS5003;61150;62.516;17.862;2022-08-01T06:02:28;12;12;
59758;PMS5003;61150;62.516;17.862;2022-08-01T06:04:57;12;12;
59758;PMS5003;61150;62.516;17.862;2022-08-01T06:07:26;14;13;
59758;PMS5003;61150;62.516;17.862;2022-08-01T06:09:55;14;14;
59758;PMS5003;61150;62.516;17.862;2022-08-01T06:12:23;14;14;
59758;PMS5003;61150;62.516;17.862;2022-08-01T06:14:52;20;20;
59758;PMS5003;61150;62.516;17.862;2022-08-01T06:17:21;15;15;
59758;PMS5003;61150;62.516;17.862;2022-08-01T06:19:50;14;14;
59758;PMS5003;61150;62.516;17.862;2022-08-01T06:22:19;11;11;
59758;PMS5003;61150;62.516;17.862;2022-08-01T06:24:48;13;13;
59758;PMS5003;61150;62.516;17.862;2022-08-01T06:27:17;13;13;
59758;PMS5003;61150;62.516;17.862;2022-08-01T06:29:46;14;13;
59758;PMS5003;61150;62.516;17.862;2022-08-01T06:32:14;13;12;
59758;PMS5003;61150;62.516;17.862;2022-08-01T06:34:43;12;12;
59758;PMS5003;61150;62.516;17.862;2022-08-01T06:37:12;12;12;
59758;PMS5003;61150;62.516;17.862;2022-08-01T06:39:41;10;10;
59758;PMS5003;61150;62.516;17.862;2022-08-01T06:42:09;13;13;
59758;PMS5003;61150;62.516;17.862;2022-08-01T06:44:38;13;13;
59758;PMS5003;61150;62.516;17.862;2022-08-01T06:47:07;12;12;
59758;PMS5003;61150;62.516;17.862;2022-08-01T06:49:36;27;26;
59758;PMS5003;61150;62.516;17.862;2022-08-01T06:52:05;10;10;
59758;PMS5003;61150;62.516;17.862;2022-08-01T06:54:35;15;15;
59758;PMS5003;61150;62.516;17.862;2022-08-01T06:57:04;13;13;
59758;PMS5003;61150;62.516;17.862;2022-08-01T06:59:34;11;11;
59758;PMS5003;61150;62.516;17.862;2022-08-01T07:02:56;14;14;
59758;PMS5003;61150;62.516;17.862;2022-08-01T07:05:26;13;13;
59758;PMS5003;61150;62.516;17.862;2022-08-01T07:07:55;14;13;
59758;PMS5003;61150;62.516;17.862;2022-08-01T07:10:24;16;16;
59758;PMS5003;61150;62.516;17.862;2022-08-01T07:12:53;15;15;
59758;PMS5003;61150;62.516;17.862;2022-08-01T07:15:22;14;13;
59758;PMS5003;61150;62.516;17.862;2022-08-01T07:17:50;18;17;
59758;PMS5003;61150;62.516;17.862;2022-08-01T07:20:19;15;15;
59758;PMS5003;61150;62.516;17.862;2022-08-01T07:22:49;14;14;
59758;PMS5003;61150;62.516;17.862;2022-08-01T07:25:17;13;13;
59758;PMS5003;61150;62.516;17.862;2022-08-01T07:27:46;14;14;
59758;PMS5003;61150;62.516;17.862;2022-08-01T07:30:15;13;13;
59758;PMS5003;61150;62.516;17.862;2022-08-01T07:32:44;13;12;
59758;PMS5003;61150;62.516;17.862;2022-08-01T07:35:12;14;14;
59758;PMS5003;61150;62.516;17.862;2022-08-01T07:37:41;12;12;
59758;PMS5003;61150;62.516;17.862;2022-08-01T07:40:10;13;13;
59758;PMS5003;61150;62.516;17.862;2022-08-01T07:42:39;13;13;
59758;PMS5003;61150;62.516;17.862;2022-08-01T07:45:08;12;12;
59758;PMS5003;61150;62.516;17.862;2022-08-01T07:47:38;12;12;
59758;PMS5003;61150;62.516;17.862;2022-08-01T07:50:07;13;13;
59758;PMS5003;61150;62.516;17.862;2022-08-01T07:52:36;13;13;
59758;PMS5003;61150;62.516;17.862;2022-08-01T07:55:05;10;9;
59758;PMS5003;61150;62.516;17.862;2022-08-01T07:57:35;10;9;
59758;PMS5003;61150;62.516;17.862;2022-08-01T08:00:04;10;10;
59758;PMS5003;61150;62.516;17.862;2022-08-01T08:02:34;6;6;
59758;PMS5003;61150;62.516;17.862;2022-08-01T08:05:03;8;8;
59758;PMS5003;61150;62.516;17.862;2022-08-01T08:07:32;7;7;
59758;PMS5003;61150;62.516;17.862;2022-08-01T08:10:01;7;7;
59758;PMS5003;61150;62.516;17.862;2022-08-01T08:12:31;8;8;
59758;PMS5003;61150;62.516;17.862;2022-08-01T08:15:00;8;8;
59758;PMS5003;61150;62.516;17.862;2022-08-01T08:17:30;4;4;
59758;PMS5003;61150;62.516;17.862;2022-08-01T08:19:59;4;4;
59758;PMS5003;61150;62.516;17.862;2022-08-01T08:22:29;5;4;
59758;PMS5003;61150;62.516;17.862;2022-08-01T08:24:58;6;5;
59758;PMS5003;61150;62.516;17.862;2022-08-01T08:27:28;4;4;
59758;PMS5003;61150;62.516;17.862;2022-08-01T08:29:57;4;4;
59758;PMS5003;61150;62.516;17.862;2022-08-01T08:32:26;5;4;
59758;PMS5003;61150;62.516;17.862;2022-08-01T08:34:55;5;4;
59758;PMS5003;61150;62.516;17.862;2022-08-01T08:37:24;5;5;
59758;PMS5003;61150;62.516;17.862;2022-08-01T08:39:53;4;4;
59758;PMS5003;61150;62.516;17.862;2022-08-01T08:42:21;5;4;
59758;PMS5003;61150;62.516;17.862;2022-08-01T08:44:51;4;4;
59758;PMS5003;61150;62.516;17.862;2022-08-01T08:47:20;6;6;
59758;PMS5003;61150;62.516;17.862;2022-08-01T08:49:51;5;5;
59758;PMS5003;61150;62.516;17.862;2022-08-01T08:52:22;6;6;
59758;PMS5003;61150;62.516;17.862;2022-08-01T08:54:51;7;6;
59758;PMS5003;61150;62.516;17.862;2022-08-01T08:57:20;6;6;
59758;PMS5003;61150;62.516;17.862;2022-08-01T08:59:49;7;7;
59758;PMS5003;61150;62.516;17.862;2022-08-01T09:02:17;7;7;
59758;PMS5003;61150;62.516;17.862;2022-08-01T09:04:46;7;7;
59758;PMS5003;61150;62.516;17.862;2022-08-01T09:07:17;5;5;
59758;PMS5003;61150;62.516;17.862;2022-08-01T09:09:45;4;4;
59758;PMS5003;61150;62.516;17.862;2022-08-01T09:12:16;9;9;
59758;PMS5003;61150;62.516;17.862;2022-08-01T09:14:46;7;7;
59758;PMS5003;61150;62.516;17.862;2022-08-01T09:17:15;4;4;
59758;PMS5003;61150;62.516;17.862;2022-08-01T09:19:45;6;6;
59758;PMS5003;61150;62.516;17.862;2022-08-01T09:22:15;6;5;
59758;PMS5003;61150;62.516;17.862;2022-08-01T09:25:04;5;4;
59758;PMS5003;61150;62.516;17.862;2022-08-01T09:27:34;4;4;
59758;PMS5003;61150;62.516;17.862;2022-08-01T09:30:09;4;4;
59758;PMS5003;61150;62.516;17.862;2022-08-01T09:32:52;5;5;
59758;PMS5003;61150;62.516;17.862;2022-08-01T09:35:22;4;4;
59758;PMS5003;61150;62.516;17.862;2022-08-01T09:37:57;2;2;
59758;PMS5003;61150;62.516;17.862;2022-08-01T09:40:44;4;4;
59758;PMS5003;61150;62.516;17.862;2022-08-01T09:43:13;4;4;
59758;PMS5003;61150;62.516;17.862;2022-08-01T09:45:41;10;9;
59758;PMS5003;61150;62.516;17.862;2022-08-01T09:48:10;5;5;
59758;PMS5003;61150;62.516;17.862;2022-08-01T09:50:39;4;4;
59758;PMS5003;61150;62.516;17.862;2022-08-01T09:53:10;4;3;
59758;PMS5003;61150;62.516;17.862;2022-08-01T09:55:39;3;3;
59758;PMS5003;61150;62.516;17.862;2022-08-01T09:58:09;8;8;
59758;PMS5003;61150;62.516;17.862;2022-08-01T10:02:48;6;6;
59758;PMS5003;61150;62.516;17.862;2022-08-01T10:05:17;7;7;
59758;PMS5003;61150;62.516;17.862;2022-08-01T10:07:55;6;6;
59758;PMS5003;61150;62.516;17.862;2022-08-01T10:10:25;9;9;
59758;PMS5003;61150;62.516;17.862;2022-08-01T10:12:54;5;4;
59758;PMS5003;61150;62.516;17.862;2022-08-01T10:15:25;3;3;
59758;PMS5003;61150;62.516;17.862;2022-08-01T10:17:55;5;5;
59758;PMS5003;61150;62.516;17.862;2022-08-01T10:20:26;5;5;
59758;PMS5003;61150;62.516;17.862;2022-08-01T10:22:57;5;5;
59758;PMS5003;61150;62.516;17.862;2022-08-01T10:25:29;4;3;
59758;PMS5003;61150;62.516;17.862;2022-08-01T10:28:02;4;4;
59758;PMS5003;61150;62.516;17.862;2022-08-01T10:30:38;7;7;
59758;PMS5003;61150;62.516;17.862;2022-08-01T10:33:10;9;9;
59758;PMS5003;61150;62.516;17.862;2022-08-01T10:35:39;6;6;
59758;PMS5003;61150;62.516;17.862;2022-08-01T10:38:07;10;10;
59758;PMS5003;61150;62.516;17.862;2022-08-01T10:40:36;12;11;
59758;PMS5003;61150;62.516;17.862;2022-08-01T10:43:05;4;4;
59758;PMS5003;61150;62.516;17.862;2022-08-01T10:45:34;8;8;
59758;PMS5003;61150;62.516;17.862;2022-08-01T10:48:04;8;6;
59758;PMS5003;61150;62.516;17.862;2022-08-01T10:50:39;6;6;
59758;PMS5003;61150;62.516;17.862;2022-08-01T10:53:13;6;6;
59758;PMS5003;61150;62.516;17.862;2022-08-01T10:55:47;7;7;
59758;PMS5003;61150;62.516;17.862;2022-08-01T10:58:21;4;4;
59758;PMS5003;61150;62.516;17.862;2022-08-01T11:01:24;5;4;
59758;PMS5003;61150;62.516;17.862;2022-08-01T11:04:12;5;4;
59758;PMS5003;61150;62.516;17.862;2022-08-01T11:06:45;4;4;
59758;PMS5003;61150;62.516;17.862;2022-08-01T11:09:23;3;2;
59758;PMS5003;61150;62.516;17.862;2022-08-01T11:11:57;7;7;
59758;PMS5003;61150;62.516;17.862;2022-08-01T11:14:28;6;5;
59758;PMS5003;61150;62.516;17.862;2022-08-01T11:16:57;6;6;
59758;PMS5003;61150;62.516;17.862;2022-08-01T11:20:06;7;6;
59758;PMS5003;61150;62.516;17.862;2022-08-01T11:23:18;4;4;
59758;PMS5003;61150;62.516;17.862;2022-08-01T11:26:06;4;4;
59758;PMS5003;61150;62.516;17.862;2022-08-01T11:28:35;4;4;
59758;PMS5003;61150;62.516;17.862;2022-08-01T11:31:36;2;2;
59758;PMS5003;61150;62.516;17.862;2022-08-01T11:34:06;3;3;
59758;PMS5003;61150;62.516;17.862;2022-08-01T11:36:34;4;3;
59758;PMS5003;61150;62.516;17.862;2022-08-01T11:39:11;4;4;
59758;PMS5003;61150;62.516;17.862;2022-08-01T11:41:42;4;4;
59758;PMS5003;61150;62.516;17.862;2022-08-01T11:44:14;5;5;
59758;PMS5003;61150;62.516;17.862;2022-08-01T11:46:45;4;4;
59758;PMS5003;61150;62.516;17.862;2022-08-01T11:49:25;3;3;
59758;PMS5003;61150;62.516;17.862;2022-08-01T11:51:57;6;5;
59758;PMS5003;61150;62.516;17.862;2022-08-01T11:54:29;5;5;
59758;PMS5003;61150;62.516;17.862;2022-08-01T11:57:00;4;4;
59758;PMS5003;61150;62.516;17.862;2022-08-01T11:59:35;5;5;
59758;PMS5003;61150;62.516;17.862;2022-08-01T12:02:23;4;4;
59758;PMS5003;61150;62.516;17.862;2022-08-01T12:04:54;5;4;
59758;PMS5003;61150;62.516;17.862;2022-08-01T12:07:24;5;5;
59758;PMS5003;61150;62.516;17.862;2022-08-01T12:09:58;6;6;
59758;PMS5003;61150;62.516;17.862;2022-08-01T12:12:29;5;5;
59758;PMS5003;61150;62.516;17.862;2022-08-01T12:15:00;11;11;
59758;PMS5003;61150;62.516;17.862;2022-08-01T12:17:33;12;11;
59758;PMS5003;61150;62.516;17.862;2022-08-01T12:20:04;11;11;
59758;PMS5003;61150;62.516;17.862;2022-08-01T12:22:35;5;4;
59758;PMS5003;61150;62.516;17.862;2022-08-01T12:25:06;5;4;
59758;PMS5003;61150;62.516;17.862;2022-08-01T12:27:36;5;5;
59758;PMS5003;61150;62.516;17.862;2022-08-01T12:30:07;4;4;
59758;PMS5003;61150;62.516;17.862;2022-08-01T12:32:37;5;5;
59758;PMS5003;61150;62.516;17.862;2022-08-01T12:35:08;4;4;
59758;PMS5003;61150;62.516;17.862;2022-08-01T12:37:39;5;5;
59758;PMS5003;61150;62.516;17.862;2022-08-01T12:40:10;2;2;
59758;PMS5003;61150;62.516;17.862;2022-08-01T12:42:41;3;3;
59758;PMS5003;61150;62.516;17.862;2022-08-01T12:45:12;6;4;
59758;PMS5003;61150;62.516;17.862;2022-08-01T12:47:41;3;3;
59758;PMS5003;61150;62.516;17.862;2022-08-01T12:50:12;4;4;
59758;PMS5003;61150;62.516;17.862;2022-08-01T12:52:42;4;4;
59758;PMS5003;61150;62.516;17.862;2022-08-01T12:55:12;5;5;
59758;PMS5003;61150;62.516;17.862;2022-08-01T12:57:42;3;3;
59758;PMS5003;61150;62.516;17.862;2022-08-01T13:03:05;4;4;
59758;PMS5003;61150;62.516;17.862;2022-08-01T13:05:43;5;4;
59758;PMS5003;61150;62.516;17.862;2022-08-01T13:08:14;3;3;
59758;PMS5003;61150;62.516;17.862;2022-08-01T13:10:46;4;4;
59758;PMS5003;61150;62.516;17.862;2022-08-01T13:13:16;5;5;
59758;PMS5003;61150;62.516;17.862;2022-08-01T13:15:45;4;4;
59758;PMS5003;61150;62.516;17.862;2022-08-01T13:18:24;5;5;
59758;PMS5003;61150;62.516;17.862;2022-08-01T13:21:09;5;5;
59758;PMS5003;61150;62.516;17.862;2022-08-01T13:23:39;4;4;
59758;PMS5003;61150;62.516;17.862;2022-08-01T13:26:08;6;5;
59758;PMS5003;61150;62.516;17.862;2022-08-01T13:28:37;6;6;
59758;PMS5003;61150;62.516;17.862;2022-08-01T13:31:06;4;4;
59758;PMS5003;61150;62.516;17.862;2022-08-01T13:33:41;6;6;
59758;PMS5003;61150;62.516;17.862;2022-08-01T13:36:10;18;17;
59758;PMS5003;61150;62.516;17.862;2022-08-01T13:38:39;8;8;
59758;PMS5003;61150;62.516;17.862;2022-08-01T13:41:09;6;6;
59758;PMS5003;61150;62.516;17.862;2022-08-01T13:43:38;3;3;
59758;PMS5003;61150;62.516;17.862;2022-08-01T13:46:06;3;2;
59758;PMS5003;61150;62.516;17.862;2022-08-01T13:48:35;5;5;
59758;PMS5003;61150;62.516;17.862;2022-08-01T13:51:04;4;4;
59758;PMS5003;61150;62.516;17.862;2022-08-01T13:53:33;6;5;
59758;PMS5003;61150;62.516;17.862;2022-08-01T13:56:01;4;4;
59758;PMS5003;61150;62.516;17.862;2022-08-01T13:58:32;5;4;
59758;PMS5003;61150;62.516;17.862;2022-08-01T14:01:00;4;4;
59758;PMS5003;61150;62.516;17.862;2022-08-01T14:03:29;5;5;
59758;PMS5003;61150;62.516;17.862;2022-08-01T14:05:58;3;3;
59758;PMS5003;61150;62.516;17.862;2022-08-01T14:08:27;6;6;
59758;PMS5003;61150;62.516;17.862;2022-08-01T14:10:55;4;4;
59758;PMS5003;61150;62.516;17.862;2022-08-01T14:13:24;5;5;
59758;PMS5003;61150;62.516;17.862;2022-08-01T14:15:53;5;5;
59758;PMS5003;61150;62.516;17.862;2022-08-01T14:18:21;26;26;
59758;PMS5003;61150;62.516;17.862;2022-08-01T14:20:50;4;4;
59758;PMS5003;61150;62.516;17.862;2022-08-01T14:23:19;4;4;
59758;PMS5003;61150;62.516;17.862;2022-08-01T14:25:48;4;4;
59758;PMS5003;61150;62.516;17.862;2022-08-01T14:28:17;4;4;
59758;PMS5003;61150;62.516;17.862;2022-08-01T14:30:45;4;4;
59758;PMS5003;61150;62.516;17.862;2022-08-01T14:33:14;6;5;
59758;PMS5003;61150;62.516;17.862;2022-08-01T14:35:43;4;4;
59758;PMS5003;61150;62.516;17.862;2022-08-01T14:38:11;4;4;
59758;PMS5003;61150;62.516;17.862;2022-08-01T14:40:45;5;5;
59758;PMS5003;61150;62.516;17.862;2022-08-01T14:43:14;4;4;
59758;PMS5003;61150;62.516;17.862;2022-08-01T14:45:43;4;3;
59758;PMS5003;61150;62.516;17.862;2022-08-01T14:48:12;3;3;
59758;PMS5003;61150;62.516;17.862;2022-08-01T14:50:40;4;4;
59758;PMS5003;61150;62.516;17.862;2022-08-01T14:53:11;4;4;
59758;PMS5003;61150;62.516;17.862;2022-08-01T14:55:40;5;5;
59758;PMS5003;61150;62.516;17.862;2022-08-01T14:58:08;5;5;
59758;PMS5003;61150;62.516;17.862;2022-08-01T15:00:37;4;4;
59758;PMS5003;61150;62.516;17.862;2022-08-01T15:03:06;4;4;
59758;PMS5003;61150;62.516;17.862;2022-08-01T15:05:35;5;4;
59758;PMS5003;61150;62.516;17.862;2022-08-01T15:08:04;3;3;
59758;PMS5003;61150;62.516;17.862;2022-08-01T15:10:34;5;4;
59758;PMS5003;61150;62.516;17.862;2022-08-01T15:13:03;4;4;
59758;PMS5003;61150;62.516;17.862;2022-08-01T15:15:32;6;5;
59758;PMS5003;61150;62.516;17.862;2022-08-01T15:18:01;4;4;
59758;PMS5003;61150;62.516;17.862;2022-08-01T15:20:29;6;5;
59758;PMS5003;61150;62.516;17.862;2022-08-01T15:22:58;4;4;
59758;PMS5003;61150;62.516;17.862;2022-08-01T15:25:27;4;4;
59758;PMS5003;61150;62.516;17.862;2022-08-01T15:27:56;7;6;
59758;PMS5003;61150;62.516;17.862;2022-08-01T15:30:24;5;4;
59758;PMS5003;61150;62.516;17.862;2022-08-01T15:32:53;3;3;
59758;PMS5003;61150;62.516;17.862;2022-08-01T15:35:22;6;4;
59758;PMS5003;61150;62.516;17.862;2022-08-01T15:37:51;4;4;
59758;PMS5003;61150;62.516;17.862;2022-08-01T15:40:19;3;3;
59758;PMS5003;61150;62.516;17.862;2022-08-01T15:42:48;5;5;
59758;PMS5003;61150;62.516;17.862;2022-08-01T15:45:17;4;4;
59758;PMS5003;61150;62.516;17.862;2022-08-01T15:47:46;4;4;
59758;PMS5003;61150;62.516;17.862;2022-08-01T15:50:15;4;4;
59758;PMS5003;61150;62.516;17.862;2022-08-01T15:52:44;4;4;
59758;PMS5003;61150;62.516;17.862;2022-08-01T15:55:12;5;5;
59758;PMS5003;61150;62.516;17.862;2022-08-01T15:57:41;3;3;
59758;PMS5003;61150;62.516;17.862;2022-08-01T16:03:01;3;3;
59758;PMS5003;61150;62.516;17.862;2022-08-01T16:05:29;3;3;
59758;PMS5003;61150;62.516;17.862;2022-08-01T16:07:58;4;4;
59758;PMS5003;61150;62.516;17.862;2022-08-01T16:10:27;3;3;
59758;PMS5003;61150;62.516;17.862;2022-08-01T16:12:56;3;3;
59758;PMS5003;61150;62.516;17.862;2022-08-01T16:15:25;4;4;
59758;PMS5003;61150;62.516;17.862;2022-08-01T16:17:54;5;5;
59758;PMS5003;61150;62.516;17.862;2022-08-01T16:20:23;4;4;
59758;PMS5003;61150;62.516;17.862;2022-08-01T16:22:52;6;6;
59758;PMS5003;61150;62.516;17.862;2022-08-01T16:25:21;5;5;
59758;PMS5003;61150;62.516;17.862;2022-08-01T16:27:50;4;4;
59758;PMS5003;61150;62.516;17.862;2022-08-01T16:30:18;3;3;
59758;PMS5003;61150;62.516;17.862;2022-08-01T16:32:47;5;5;
59758;PMS5003;61150;62.516;17.862;2022-08-01T16:35:16;4;3;
59758;PMS5003;61150;62.516;17.862;2022-08-01T16:37:45;4;4;
59758;PMS5003;61150;62.516;17.862;2022-08-01T16:40:13;3;3;
59758;PMS5003;61150;62.516;17.862;2022-08-01T16:42:42;3;3;
59758;PMS5003;61150;62.516;17.862;2022-08-01T16:45:11;4;3;
59758;PMS5003;61150;62.516;17.862;2022-08-01T16:47:40;3;3;
59758;PMS5003;61150;62.516;17.862;2022-08-01T16:50:08;2;2;
59758;PMS5003;61150;62.516;17.862;2022-08-01T16:52:37;3;2;
59758;PMS5003;61150;62.516;17.862;2022-08-01T16:55:07;2;2;